createdAt,value
2024-03-07T00:01:10.341Z,100704.41
2024-03-07T00:03:40.248Z,100705.47
2024-03-07T00:06:09.988Z,100709.19
2024-03-07T00:08:38.686Z,100707.31
2024-03-07T00:11:06.058Z,100700.75
2024-03-07T00:13:33.510Z,100712.44
2024-03-07T00:16:00.837Z,100712.44
2024-03-07T00:18:28.707Z,100710.34
2024-03-07T00:20:57.215Z,100709.88
2024-03-07T00:23:24.529Z,100707.06
2024-03-07T00:25:52.860Z,100712.44
2024-03-07T00:28:21.622Z,100709.75
2024-03-07T00:30:49.078Z,100717.50
2024-03-07T00:33:17.102Z,100719.94
2024-03-07T00:35:45.946Z,100711.84
2024-03-07T00:38:16.286Z,100709.16
2024-03-07T00:40:43.699Z,100708.13
2024-03-07T00:43:12.213Z,100717.00
2024-03-07T00:45:39.949Z,100705.78
2024-03-07T00:48:07.489Z,100709.75
2024-03-07T00:50:35.981Z,100706.72
2024-03-07T00:53:03.570Z,100707.38
2024-03-07T00:55:31.099Z,100707.84
2024-03-07T00:57:58.411Z,100709.94
2024-03-07T01:00:25.808Z,100712.28
2024-03-07T01:02:54.905Z,100699.03
2024-03-07T01:05:23.353Z,100705.47
2024-03-07T01:07:51.692Z,100701.50
2024-03-07T01:10:19.334Z,100703.94
2024-03-07T01:12:46.838Z,100703.16
2024-03-07T01:15:16.304Z,100704.44
2024-03-07T01:17:43.709Z,100711.19
2024-03-07T01:20:12.857Z,100704.59
2024-03-07T01:22:40.350Z,100710.00
2024-03-07T01:25:08.739Z,100710.88
2024-03-07T01:27:36.285Z,100701.16
2024-03-07T01:30:03.703Z,100708.19
2024-03-07T01:32:32.675Z,100711.72
2024-03-07T01:35:01.071Z,100710.88
2024-03-07T01:37:28.781Z,100712.56
2024-03-07T01:39:56.170Z,100712.56
2024-03-07T01:42:25.489Z,100712.06
2024-03-07T01:44:53.141Z,100724.28
2024-03-07T01:47:21.953Z,100718.09
2024-03-07T01:49:51.068Z,100723.69
2024-03-07T01:52:19.453Z,100725.53
2024-03-07T01:54:48.168Z,100726.16
2024-03-07T01:57:17.216Z,100724.97
2024-03-07T01:59:44.882Z,100731.25
2024-03-07T02:02:13.258Z,100729.59
2024-03-07T02:04:40.764Z,100727.53
2024-03-07T02:07:12.628Z,100727.53
2024-03-07T02:09:40.733Z,100732.31
2024-03-07T02:12:10.267Z,100727.97
2024-03-07T02:14:37.838Z,100732.16
2024-03-07T02:17:05.476Z,100732.16
2024-03-07T02:19:33.391Z,100733.81
2024-03-07T02:22:01.047Z,100738.00
2024-03-07T02:24:28.390Z,100732.69
2024-03-07T02:26:55.943Z,100741.00
2024-03-07T02:29:23.390Z,100745.56
2024-03-07T02:31:50.753Z,100739.97
2024-03-07T02:34:18.079Z,100750.72
2024-03-07T02:36:45.345Z,100744.72
2024-03-07T02:39:13.168Z,100747.41
2024-03-07T02:41:40.589Z,100747.41
2024-03-07T02:44:07.879Z,100744.72
2024-03-07T02:46:35.293Z,100752.59
2024-03-07T02:49:02.667Z,100753.44
2024-03-07T02:51:32.703Z,100751.16
2024-03-07T02:54:00.332Z,100751.16
2024-03-07T02:56:28.661Z,100757.59
2024-03-07T02:58:56.057Z,100749.97
2024-03-07T03:01:23.725Z,100748.78
2024-03-07T03:03:51.214Z,100742.19
2024-03-07T03:06:21.795Z,100754.16
2024-03-07T03:08:49.402Z,100750.19
2024-03-07T03:11:16.799Z,100753.13
2024-03-07T03:13:44.569Z,100751.47
2024-03-07T03:16:11.912Z,100761.44
2024-03-07T03:18:39.145Z,100748.19
2024-03-07T03:21:06.874Z,100756.06
2024-03-07T03:23:35.957Z,100751.25
2024-03-07T03:26:04.948Z,100754.78
2024-03-07T03:28:32.993Z,100758.53
2024-03-07T03:31:00.369Z,100751.47
2024-03-07T03:33:27.978Z,100762.72
2024-03-07T03:35:56.917Z,100762.72
2024-03-07T03:38:24.895Z,100757.75
2024-03-07T03:40:54.703Z,100763.16
2024-03-07T03:43:22.144Z,100764.19
2024-03-07T03:45:49.438Z,100764.19
2024-03-07T03:48:16.945Z,100763.16
2024-03-07T03:50:44.402Z,100764.78
2024-03-07T03:53:12.219Z,100767.47
2024-03-07T03:55:39.771Z,100772.84
2024-03-07T03:58:07.178Z,100765.22
2024-03-07T04:00:35.781Z,100763.16
2024-03-07T04:03:04.003Z,100766.88
2024-03-07T04:05:33.760Z,100773.91
2024-03-07T04:08:01.997Z,100776.38
2024-03-07T04:10:33.033Z,100780.50
2024-03-07T04:13:00.390Z,100784.81
2024-03-07T04:15:28.211Z,100775.91
2024-03-07T04:17:56.133Z,100785.13
2024-03-07T04:20:26.090Z,100787.06
2024-03-07T04:22:53.465Z,100792.47
2024-03-07T04:25:21.257Z,100798.44
2024-03-07T04:27:50.874Z,100804.44
2024-03-07T04:30:18.464Z,100801.75
2024-03-07T04:32:46.827Z,100801.28
2024-03-07T04:35:18.144Z,100799.63
2024-03-07T04:37:50.096Z,100805.84
2024-03-07T04:40:18.866Z,100806.66
2024-03-07T04:42:48.215Z,100802.91
2024-03-07T04:45:15.563Z,100803.75
2024-03-07T04:47:43.292Z,100807.28
2024-03-07T04:50:14.001Z,100806.22
2024-03-07T04:52:41.566Z,100818.41
2024-03-07T04:55:11.401Z,100819.69
2024-03-07T04:57:40.975Z,100820.59
2024-03-07T05:00:09.228Z,100820.63
2024-03-07T05:02:38.139Z,100826.03
2024-03-07T05:05:05.676Z,100832.84
2024-03-07T05:07:33.295Z,100829.09
2024-03-07T05:10:00.654Z,100829.53
2024-03-07T05:12:28.014Z,100839.69
2024-03-07T05:14:55.734Z,100824.56
2024-03-07T05:17:23.368Z,100833.25
2024-03-07T05:19:51.097Z,100837.75
2024-03-07T05:22:19.548Z,100834.03
2024-03-07T05:24:47.000Z,100842.69
2024-03-07T05:27:14.505Z,100842.69
2024-03-07T05:29:43.269Z,100837.31
2024-03-07T05:32:24.205Z,100840.59
2024-03-07T05:34:52.836Z,100834.19
2024-03-07T05:37:22.811Z,100830.66
2024-03-07T05:39:50.869Z,100836.41
2024-03-07T05:42:18.362Z,100840.16
2024-03-07T05:44:46.625Z,100838.09
2024-03-07T05:47:15.205Z,100832.72
2024-03-07T05:49:42.649Z,100840.16
2024-03-07T05:52:11.026Z,100844.28
2024-03-07T05:54:39.306Z,100845.13
2024-03-07T05:57:09.486Z,100847.38
2024-03-07T05:59:37.676Z,100843.78
2024-03-07T06:02:06.411Z,100850.38
2024-03-07T06:04:35.781Z,100838.09
2024-03-07T06:07:05.172Z,100843.28
2024-03-07T06:09:34.099Z,100833.31
2024-03-07T06:12:07.667Z,100846.34
2024-03-07T06:14:41.658Z,100846.91
2024-03-07T06:17:12.018Z,100840.50
2024-03-07T06:19:39.414Z,100834.06
2024-03-07T06:22:10.033Z,100844.84
2024-03-07T06:24:41.554Z,100851.03
2024-03-07T06:27:17.591Z,100855.16
2024-03-07T06:29:45.868Z,100848.06
2024-03-07T06:32:14.273Z,100851.16
2024-03-07T06:34:41.689Z,100846.69
2024-03-07T06:37:09.818Z,100846.84
2024-03-07T06:39:37.304Z,100850.16
2024-03-07T06:42:06.991Z,100847.81
2024-03-07T06:44:34.533Z,100851.13
2024-03-07T06:47:02.031Z,100849.47
2024-03-07T06:49:29.570Z,100857.31
2024-03-07T06:51:58.186Z,100849.03
2024-03-07T06:54:26.132Z,100849.16
2024-03-07T06:56:53.547Z,100856.81
2024-03-07T06:59:20.998Z,100855.75
2024-03-07T07:01:48.651Z,100863.41
2024-03-07T07:04:16.550Z,100859.19
2024-03-07T07:06:44.309Z,100857.09
2024-03-07T07:09:12.524Z,100858.72
2024-03-07T07:11:40.229Z,100852.88
2024-03-07T07:14:08.539Z,100853.25
2024-03-07T07:16:37.141Z,100855.16
2024-03-07T07:19:05.224Z,100856.13
2024-03-07T07:21:32.632Z,100860.59
2024-03-07T07:24:00.313Z,100864.25
2024-03-07T07:26:29.557Z,100859.44
2024-03-07T07:28:58.184Z,100854.06
2024-03-07T07:31:27.173Z,100858.88
2024-03-07T07:33:55.044Z,100859.31
2024-03-07T07:36:22.579Z,100856.03
2024-03-07T07:38:50.155Z,100857.66
2024-03-07T07:41:18.480Z,100856.91
2024-03-07T07:43:47.765Z,100863.50
2024-03-07T07:46:17.267Z,100863.19
2024-03-07T07:48:45.673Z,100861.00
2024-03-07T07:51:14.099Z,100859.25
2024-03-07T07:53:42.146Z,100859.63
2024-03-07T07:56:11.696Z,100862.22
2024-03-07T07:58:39.129Z,100858.50
2024-03-07T08:01:09.392Z,100865.97
2024-03-07T08:03:37.945Z,100869.72
2024-03-07T08:06:05.458Z,100871.38
2024-03-07T08:08:34.778Z,100873.00
2024-03-07T08:11:03.650Z,100871.59
2024-03-07T08:13:31.870Z,100877.13
2024-03-07T08:16:00.964Z,100878.69
2024-03-07T08:18:28.600Z,100874.72
2024-03-07T08:20:57.897Z,100877.75
2024-03-07T08:23:27.954Z,100880.13
2024-03-07T08:25:56.457Z,100875.94
2024-03-07T08:28:24.784Z,100885.00
2024-03-07T08:30:52.228Z,100875.59
2024-03-07T08:33:23.290Z,100879.94
2024-03-07T08:35:54.401Z,100871.97
2024-03-07T08:38:22.863Z,100887.00
2024-03-07T08:40:50.152Z,100878.78
2024-03-07T08:43:17.517Z,100885.25
2024-03-07T08:45:46.506Z,100878.34
2024-03-07T08:48:24.961Z,100882.78
2024-03-07T08:50:54.012Z,100878.00
2024-03-07T08:53:21.577Z,100889.81
2024-03-07T08:55:49.040Z,100882.56
2024-03-07T08:58:17.735Z,100882.31
2024-03-07T09:00:47.012Z,100875.28
2024-03-07T09:03:20.023Z,100880.31
2024-03-07T09:05:47.852Z,100876.56
2024-03-07T09:08:15.461Z,100882.56
2024-03-07T09:10:45.689Z,100880.41
2024-03-07T09:13:13.396Z,100886.44
2024-03-07T09:15:41.740Z,100876.81
2024-03-07T09:18:13.350Z,100877.28
2024-03-07T09:20:42.355Z,100889.59
2024-03-07T09:23:10.932Z,100884.34
2024-03-07T09:25:38.598Z,100889.03
2024-03-07T09:28:07.824Z,100887.75
2024-03-07T09:30:40.001Z,100887.50
2024-03-07T09:33:12.374Z,100890.09
2024-03-07T09:35:40.605Z,100891.72
2024-03-07T09:38:08.745Z,100882.69
2024-03-07T09:40:36.829Z,100875.38
2024-03-07T09:43:04.446Z,100873.72
2024-03-07T09:45:33.144Z,100873.13
2024-03-07T09:48:03.823Z,100878.75
2024-03-07T09:50:32.897Z,100880.00
2024-03-07T09:53:01.945Z,100867.66
2024-03-07T09:55:38.957Z,100864.38
2024-03-07T09:58:08.223Z,100860.59
2024-03-07T10:00:36.330Z,100856.13
2024-03-07T10:03:08.210Z,100849.28
2024-03-07T10:05:36.108Z,100855.72
2024-03-07T10:08:04.486Z,100851.53
2024-03-07T10:10:32.974Z,100846.31
2024-03-07T10:13:02.023Z,100848.63
2024-03-07T10:15:33.100Z,100846.00
2024-03-07T10:18:08.578Z,100848.78
2024-03-07T10:20:37.224Z,100844.22
2024-03-07T10:23:04.995Z,100842.91
2024-03-07T10:25:34.236Z,100837.50
2024-03-07T10:28:05.347Z,100843.38
2024-03-07T10:30:41.066Z,100840.44
2024-03-07T10:33:08.897Z,100846.69
2024-03-07T10:35:37.913Z,100835.84
2024-03-07T10:38:08.729Z,100833.22
2024-03-07T10:40:42.467Z,100833.72
2024-03-07T10:43:14.887Z,100830.91
2024-03-07T10:45:47.745Z,100830.44
2024-03-07T10:48:19.098Z,100828.63
2024-03-07T10:50:49.957Z,100831.25
2024-03-07T10:53:27.264Z,100830.53
2024-03-07T10:56:16.257Z,100834.53
2024-03-07T10:59:08.721Z,100821.47
2024-03-07T11:01:41.640Z,100824.94
2024-03-07T11:04:09.249Z,100822.06
2024-03-07T11:06:38.682Z,100821.91
2024-03-07T11:09:12.268Z,100817.13
2024-03-07T11:11:45.104Z,100815.53
2024-03-07T11:14:13.438Z,100814.50
2024-03-07T11:17:05.629Z,100816.63
2024-03-07T11:19:39.090Z,100810.78
2024-03-07T11:22:17.071Z,100816.63
2024-03-07T11:24:46.397Z,100815.44
2024-03-07T11:27:16.624Z,100819.22
2024-03-07T11:29:55.562Z,100816.03
2024-03-07T11:32:25.270Z,100809.16
2024-03-07T11:34:55.088Z,100805.66
2024-03-07T11:37:45.180Z,100807.09
2024-03-07T11:40:20.125Z,100812.59
2024-03-07T11:42:49.292Z,100798.03
2024-03-07T11:45:26.459Z,100804.44
2024-03-07T11:48:12.635Z,100801.19
2024-03-07T11:50:44.310Z,100812.03
2024-03-07T11:53:12.410Z,100799.63
2024-03-07T11:55:46.943Z,100801.88
2024-03-07T11:58:18.926Z,100804.16
2024-03-07T12:00:46.651Z,100801.25
2024-03-07T12:03:18.584Z,100804.25
2024-03-07T12:05:47.977Z,100809.50
2024-03-07T12:08:15.622Z,100803.63
2024-03-07T12:10:49.586Z,100796.41
2024-03-07T12:13:17.859Z,100793.47
2024-03-07T12:15:45.943Z,100797.56
2024-03-07T12:18:19.399Z,100800.34
2024-03-07T12:20:56.324Z,100787.28
2024-03-07T12:23:28.136Z,100793.31
2024-03-07T12:26:03.513Z,100797.63
2024-03-07T12:28:40.045Z,100788.94
2024-03-07T12:31:17.145Z,100792.72
2024-03-07T12:33:48.787Z,100786.78
2024-03-07T12:36:17.947Z,100788.94
2024-03-07T12:38:45.810Z,100786.78
2024-03-07T12:41:18.097Z,100787.91
2024-03-07T12:43:48.955Z,100784.66
2024-03-07T12:46:17.442Z,100783.63
2024-03-07T12:48:47.376Z,100781.44
2024-03-07T12:51:19.876Z,100779.56
2024-03-07T12:53:49.847Z,100781.44
2024-03-07T12:56:19.185Z,100776.22
2024-03-07T12:58:47.866Z,100777.56
2024-03-07T13:01:16.345Z,100771.84
2024-03-07T13:03:46.400Z,100780.22
2024-03-07T13:06:14.205Z,100773.72
2024-03-07T13:08:42.432Z,100763.13
2024-03-07T13:11:11.876Z,100771.00
2024-03-07T13:13:39.528Z,100771.00
2024-03-07T13:16:07.955Z,100771.25
2024-03-07T13:18:36.618Z,100763.94
2024-03-07T13:21:05.999Z,100764.50
2024-03-07T13:23:34.409Z,100761.78
2024-03-07T13:26:02.830Z,100765.06
2024-03-07T13:28:31.369Z,100770.00
2024-03-07T13:30:58.829Z,100761.56
2024-03-07T13:33:27.024Z,100762.94
2024-03-07T13:35:55.021Z,100764.06
2024-03-07T13:38:22.596Z,100756.44
2024-03-07T13:40:51.297Z,100764.03
2024-03-07T13:43:19.624Z,100758.56
2024-03-07T13:45:49.639Z,100763.44
2024-03-07T13:48:20.788Z,100759.00
2024-03-07T13:50:57.178Z,100754.94
2024-03-07T13:53:30.883Z,100756.06
2024-03-07T13:56:06.206Z,100752.81
2024-03-07T13:58:36.445Z,100756.66
2024-03-07T14:01:22.246Z,100753.13
2024-03-07T14:04:05.227Z,100754.72
2024-03-07T14:06:41.559Z,100760.13
2024-03-07T14:09:46.792Z,100750.91
2024-03-07T14:12:41.950Z,100751.44
2024-03-07T14:15:20.359Z,100745.75
2024-03-07T14:18:21.761Z,100751.19
2024-03-07T14:21:03.619Z,100750.63
2024-03-07T14:24:01.830Z,100747.31
2024-03-07T14:27:06.164Z,100744.81
2024-03-07T14:29:51.726Z,100755.94
2024-03-07T14:32:19.857Z,100750.75
2024-03-07T14:34:48.724Z,100749.13
2024-03-07T14:37:24.178Z,100740.38
2024-03-07T14:39:52.229Z,100748.78
2024-03-07T14:42:20.570Z,100737.94
2024-03-07T14:44:49.720Z,100742.56
2024-03-07T14:47:20.270Z,100750.94
2024-03-07T14:49:47.857Z,100744.94
2024-03-07T14:52:16.518Z,100740.31
2024-03-07T14:54:44.055Z,100743.78
2024-03-07T14:57:12.797Z,100738.56
2024-03-07T14:59:42.428Z,100736.88
2024-03-07T15:02:12.422Z,100736.31
2024-03-07T15:04:41.115Z,100737.63
2024-03-07T15:07:10.987Z,100734.84
2024-03-07T15:09:39.609Z,100737.53
2024-03-07T15:12:08.402Z,100741.81
2024-03-07T15:14:39.098Z,100741.00
2024-03-07T15:17:08.648Z,100740.44
2024-03-07T15:19:38.827Z,100741.75
2024-03-07T15:22:07.359Z,100746.88
2024-03-07T15:24:37.749Z,100741.97
2024-03-07T15:27:07.635Z,100746.81
2024-03-07T15:29:39.092Z,100745.44
2024-03-07T15:32:09.516Z,100752.19
2024-03-07T15:34:39.295Z,100748.34
2024-03-07T15:37:08.487Z,100757.81
2024-03-07T15:39:40.082Z,100758.56
2024-03-07T15:42:10.473Z,100766.13
2024-03-07T15:44:39.887Z,100767.41
2024-03-07T15:47:09.879Z,100766.63
2024-03-07T15:49:42.167Z,100769.28
2024-03-07T15:52:10.840Z,100771.75
2024-03-07T15:54:38.689Z,100770.41
2024-03-07T15:57:07.923Z,100775.84
2024-03-07T15:59:36.516Z,100771.47
2024-03-07T16:02:05.955Z,100773.63
2024-03-07T16:04:35.184Z,100779.78
2024-03-07T16:07:02.462Z,100781.09
2024-03-07T16:09:29.947Z,100777.25
2024-03-07T16:11:59.056Z,100787.53
2024-03-07T16:14:27.051Z,100789.09
2024-03-07T16:16:54.825Z,100789.28
2024-03-07T16:19:23.715Z,100796.84
2024-03-07T16:21:51.728Z,100796.25
2024-03-07T16:24:19.002Z,100803.00
2024-03-07T16:26:48.343Z,100805.16
2024-03-07T16:29:16.041Z,100805.63
2024-03-07T16:31:45.667Z,100806.13
2024-03-07T16:34:16.520Z,100810.16
2024-03-07T16:36:44.067Z,100819.34
2024-03-07T16:39:13.505Z,100816.09
2024-03-07T16:41:41.810Z,100814.66
2024-03-07T16:44:09.809Z,100823.06
2024-03-07T16:46:38.794Z,100824.09
2024-03-07T16:49:09.370Z,100824.84
2024-03-07T16:51:39.279Z,100824.03
2024-03-07T16:54:09.429Z,100825.94
2024-03-07T16:56:42.221Z,100828.66
2024-03-07T16:59:11.516Z,100824.53
2024-03-07T17:01:45.690Z,100815.00
2024-03-07T17:04:13.987Z,100822.56
2024-03-07T17:06:42.010Z,100820.34
2024-03-07T17:09:12.330Z,100817.84
2024-03-07T17:11:42.403Z,100827.66
2024-03-07T17:14:11.254Z,100828.44
2024-03-07T17:16:38.642Z,100827.06
2024-03-07T17:19:11.171Z,100821.88
2024-03-07T17:21:38.651Z,100830.53
2024-03-07T17:24:06.257Z,100825.03
2024-03-07T17:26:35.312Z,100827.13
2024-03-07T17:29:02.614Z,100822.19
2024-03-07T17:31:31.843Z,100826.50
2024-03-07T17:33:59.172Z,100822.63
2024-03-07T17:36:31.316Z,100827.94
2024-03-07T17:39:00.472Z,100826.19
2024-03-07T17:41:27.772Z,100819.41
2024-03-07T17:43:55.414Z,100834.81
2024-03-07T17:46:26.391Z,100837.41
2024-03-07T17:48:53.692Z,100831.34
2024-03-07T17:51:21.325Z,100842.31
2024-03-07T17:53:50.784Z,100840.31
2024-03-07T17:56:18.480Z,100846.22
2024-03-07T17:58:46.291Z,100841.28
2024-03-07T18:01:16.869Z,100847.78
2024-03-07T18:03:44.483Z,100843.91
2024-03-07T18:06:12.241Z,100840.59
2024-03-07T18:08:46.010Z,100844.84
2024-03-07T18:11:20.452Z,100851.22
2024-03-07T18:13:47.931Z,100851.13
2024-03-07T18:16:16.046Z,100852.19
2024-03-07T18:18:47.203Z,100854.31
2024-03-07T18:21:15.248Z,100854.78
2024-03-07T18:23:44.303Z,100857.38
2024-03-07T18:26:14.596Z,100851.63
2024-03-07T18:28:42.034Z,100862.09
2024-03-07T18:31:15.674Z,100859.31
2024-03-07T18:33:44.871Z,100865.16
2024-03-07T18:36:15.146Z,100864.00
2024-03-07T18:38:42.695Z,100868.22
2024-03-07T18:41:13.370Z,100874.09
2024-03-07T18:43:42.510Z,100868.34
2024-03-07T18:46:10.692Z,100876.69
2024-03-07T18:48:38.406Z,100885.25
2024-03-07T18:51:10.214Z,100883.41
2024-03-07T18:53:38.708Z,100877.66
2024-03-07T18:56:12.747Z,100871.63
2024-03-07T18:58:46.965Z,100877.75
2024-03-07T19:01:15.292Z,100882.22
2024-03-07T19:03:45.197Z,100882.44
2024-03-07T19:06:13.347Z,100876.69
2024-03-07T19:08:40.973Z,100878.47
2024-03-07T19:11:08.535Z,100874.56
2024-03-07T19:13:37.598Z,100886.66
2024-03-07T19:16:07.572Z,100886.91
2024-03-07T19:18:35.384Z,100884.44
2024-03-07T19:21:11.463Z,100878.69
2024-03-07T19:23:46.546Z,100883.28
2024-03-07T19:26:20.882Z,100882.44
2024-03-07T19:28:49.644Z,100878.34
2024-03-07T19:31:16.937Z,100880.41
2024-03-07T19:33:44.909Z,100868.22
2024-03-07T19:36:15.909Z,100872.19
2024-03-07T19:38:49.237Z,100876.06
2024-03-07T19:41:17.020Z,100881.13
2024-03-07T19:43:44.633Z,100872.41
2024-03-07T19:46:13.021Z,100867.25
2024-03-07T19:48:40.630Z,100864.19
2024-03-07T19:51:10.794Z,100863.00
2024-03-07T19:53:39.589Z,100870.53
2024-03-07T19:56:09.284Z,100870.97
2024-03-07T19:58:39.220Z,100866.88
2024-03-07T20:01:07.086Z,100863.81
2024-03-07T20:03:34.869Z,100866.41
2024-03-07T20:06:02.330Z,100870.94
2024-03-07T20:08:30.028Z,100872.81
2024-03-07T20:10:59.127Z,100871.63
2024-03-07T20:13:26.731Z,100872.69
2024-03-07T20:15:56.047Z,100873.75
2024-03-07T20:18:25.480Z,100868.81
2024-03-07T20:20:53.695Z,100864.47
2024-03-07T20:23:21.628Z,100864.91
2024-03-07T20:25:49.125Z,100864.34
2024-03-07T20:28:16.480Z,100866.41
2024-03-07T20:30:47.119Z,100863.72
2024-03-07T20:33:16.111Z,100870.19
2024-03-07T20:35:44.704Z,100864.44
2024-03-07T20:38:16.392Z,100870.66
2024-03-07T20:40:44.257Z,100867.56
2024-03-07T20:43:12.622Z,100867.81
2024-03-07T20:45:41.752Z,100868.28
2024-03-07T20:48:13.695Z,100864.97
2024-03-07T20:50:42.309Z,100867.66
2024-03-07T20:53:11.641Z,100866.03
2024-03-07T20:55:42.199Z,100864.38
2024-03-07T20:58:12.194Z,100860.63
2024-03-07T21:00:46.760Z,100866.47
2024-03-07T21:03:16.451Z,100860.94
2024-03-07T21:05:45.802Z,100864.91
2024-03-07T21:08:13.639Z,100859.97
2024-03-07T21:10:42.551Z,100860.22
2024-03-07T21:13:10.670Z,100857.13
2024-03-07T21:15:40.404Z,100850.81
2024-03-07T21:18:09.370Z,100858.28
2024-03-07T21:20:37.836Z,100857.69
2024-03-07T21:23:08.871Z,100854.38
2024-03-07T21:25:37.286Z,100845.13
2024-03-07T21:28:08.205Z,100851.56
2024-03-07T21:30:36.825Z,100847.66
2024-03-07T21:33:06.259Z,100846.03
2024-03-07T21:35:35.389Z,100846.47
2024-03-07T21:38:03.368Z,100841.56
2024-03-07T21:40:30.943Z,100839.88
2024-03-07T21:42:58.635Z,100837.66
2024-03-07T21:45:28.112Z,100837.88
2024-03-07T21:47:57.217Z,100842.44
2024-03-07T21:50:27.754Z,100847.25
2024-03-07T21:52:55.502Z,100849.53
2024-03-07T21:55:25.530Z,100847.09
2024-03-07T21:57:57.257Z,100843.00
2024-03-07T22:00:29.746Z,100848.81
2024-03-07T22:03:01.448Z,100845.28
2024-03-07T22:05:32.284Z,100845.97
2024-03-07T22:08:00.861Z,100845.13
2024-03-07T22:10:31.119Z,100848.28
2024-03-07T22:12:58.818Z,100840.66
2024-03-07T22:15:26.389Z,100846.47
2024-03-07T22:17:54.834Z,100842.16
2024-03-07T22:20:24.623Z,100841.31
2024-03-07T22:22:53.311Z,100834.28
2024-03-07T22:25:26.648Z,100839.91
2024-03-07T22:27:54.713Z,100841.16
2024-03-07T22:30:23.387Z,100837.88
2024-03-07T22:32:52.495Z,100841.59
2024-03-07T22:35:20.356Z,100835.41
2024-03-07T22:37:48.896Z,100832.72
2024-03-07T22:40:16.934Z,100837.88
2024-03-07T22:42:46.449Z,100835.84
2024-03-07T22:45:17.166Z,100834.22
2024-03-07T22:47:47.337Z,100838.97
2024-03-07T22:50:26.194Z,100833.84
2024-03-07T22:53:02.842Z,100841.91
2024-03-07T22:55:31.809Z,100839.44
2024-03-07T22:58:01.734Z,100834.06
2024-03-07T23:00:33.287Z,100837.56
2024-03-07T23:03:05.981Z,100825.97
2024-03-07T23:05:33.895Z,100833.84
2024-03-07T23:08:02.004Z,100829.25
2024-03-07T23:10:29.958Z,100824.31
2024-03-07T23:13:00.437Z,100822.31
2024-03-07T23:15:28.832Z,100833.06
2024-03-07T23:17:58.671Z,100831.22
2024-03-07T23:20:27.860Z,100829.31
2024-03-07T23:22:57.266Z,100820.44
2024-03-07T23:25:25.442Z,100817.34
2024-03-07T23:27:53.793Z,100815.50
2024-03-07T23:30:23.428Z,100811.16
2024-03-07T23:32:52.805Z,100808.06
2024-03-07T23:35:21.344Z,100802.53
2024-03-07T23:37:49.239Z,100800.06
2024-03-07T23:40:17.033Z,100802.31
2024-03-07T23:42:45.083Z,100801.75
2024-03-07T23:45:15.550Z,100803.81
2024-03-07T23:47:43.633Z,100798.44
2024-03-07T23:50:12.879Z,100801.97
2024-03-07T23:52:44.297Z,100795.16
2024-03-07T23:55:12.721Z,100800.97
2024-03-07T23:57:41.181Z,100798.13
